sensor_id;sensor_type;location;lat;lon;timestamp;P1;durP1;ratioP1;P2;durP2;ratioP2
13034;SDS011;6584;48.022;11.810;2022-12-18T00:01:50;65.93;;;22.73;;
13034;SDS011;6584;48.022;11.810;2022-12-18T00:04:21;56.15;;;22.33;;
13034;SDS011;6584;48.022;11.810;2022-12-18T00:06:48;57.47;;;20.80;;
13034;SDS011;6584;48.022;11.810;2022-12-18T00:09:14;46.35;;;22.02;;
13034;SDS011;6584;48.022;11.810;2022-12-18T00:11:40;49.97;;;22.52;;
13034;SDS011;6584;48.022;11.810;2022-12-18T00:14:06;46.22;;;22.77;;
13034;SDS011;6584;48.022;11.810;2022-12-18T00:16:31;48.78;;;23.33;;
13034;SDS011;6584;48.022;11.810;2022-12-18T00:19:00;54.72;;;22.90;;
13034;SDS011;6584;48.022;11.810;2022-12-18T00:21:26;45.28;;;22.88;;
13034;SDS011;6584;48.022;11.810;2022-12-18T00:23:52;43.72;;;21.75;;
13034;SDS011;6584;48.022;11.810;2022-12-18T00:26:19;53.83;;;21.63;;
13034;SDS011;6584;48.022;11.810;2022-12-18T00:28:50;59.38;;;22.88;;
13034;SDS011;6584;48.022;11.810;2022-12-18T00:31:20;52.40;;;22.52;;
13034;SDS011;6584;48.022;11.810;2022-12-18T00:33:47;44.45;;;21.58;;
13034;SDS011;6584;48.022;11.810;2022-12-18T00:36:14;49.83;;;22.73;;
13034;SDS011;6584;48.022;11.810;2022-12-18T00:38:42;61.55;;;23.13;;
13034;SDS011;6584;48.022;11.810;2022-12-18T00:41:08;67.68;;;23.17;;
13034;SDS011;6584;48.022;11.810;2022-12-18T00:43:35;45.97;;;22.70;;
13034;SDS011;6584;48.022;11.810;2022-12-18T00:46:02;44.17;;;22.88;;
13034;SDS011;6584;48.022;11.810;2022-12-18T00:48:28;65.72;;;25.23;;
13034;SDS011;6584;48.022;11.810;2022-12-18T00:50:53;60.22;;;23.08;;
13034;SDS011;6584;48.022;11.810;2022-12-18T00:53:19;48.97;;;25.02;;
13034;SDS011;6584;48.022;11.810;2022-12-18T00:55:45;47.42;;;23.25;;
13034;SDS011;6584;48.022;11.810;2022-12-18T00:58:11;60.30;;;25.35;;
13034;SDS011;6584;48.022;11.810;2022-12-18T01:00:37;51.95;;;24.60;;
13034;SDS011;6584;48.022;11.810;2022-12-18T01:03:03;58.70;;;25.35;;
13034;SDS011;6584;48.022;11.810;2022-12-18T01:05:29;54.53;;;25.30;;
13034;SDS011;6584;48.022;11.810;2022-12-18T01:07:55;54.42;;;25.63;;
13034;SDS011;6584;48.022;11.810;2022-12-18T01:10:21;52.58;;;25.77;;
13034;SDS011;6584;48.022;11.810;2022-12-18T01:12:47;52.63;;;24.95;;
13034;SDS011;6584;48.022;11.810;2022-12-18T01:15:13;52.03;;;25.38;;
13034;SDS011;6584;48.022;11.810;2022-12-18T01:17:39;53.75;;;25.75;;
13034;SDS011;6584;48.022;11.810;2022-12-18T01:20:05;51.63;;;25.23;;
13034;SDS011;6584;48.022;11.810;2022-12-18T01:22:31;53.58;;;25.17;;
13034;SDS011;6584;48.022;11.810;2022-12-18T01:24:57;52.50;;;24.95;;
13034;SDS011;6584;48.022;11.810;2022-12-18T01:27:23;57.00;;;25.58;;
13034;SDS011;6584;48.022;11.810;2022-12-18T01:29:49;51.33;;;25.45;;
13034;SDS011;6584;48.022;11.810;2022-12-18T01:32:14;52.92;;;24.95;;
13034;SDS011;6584;48.022;11.810;2022-12-18T01:34:40;51.92;;;25.52;;
13034;SDS011;6584;48.022;11.810;2022-12-18T01:37:05;56.13;;;27.08;;
13034;SDS011;6584;48.022;11.810;2022-12-18T01:39:31;59.90;;;27.73;;
13034;SDS011;6584;48.022;11.810;2022-12-18T01:41:58;52.75;;;26.27;;
13034;SDS011;6584;48.022;11.810;2022-12-18T01:50:15;54.08;;;26.45;;
13034;SDS011;6584;48.022;11.810;2022-12-18T01:53:26;54.10;;;25.85;;
13034;SDS011;6584;48.022;11.810;2022-12-18T01:55:51;51.47;;;26.25;;
13034;SDS011;6584;48.022;11.810;2022-12-18T01:58:19;56.25;;;27.23;;
13034;SDS011;6584;48.022;11.810;2022-12-18T02:00:49;52.20;;;26.02;;
13034;SDS011;6584;48.022;11.810;2022-12-18T02:03:14;52.92;;;25.65;;
13034;SDS011;6584;48.022;11.810;2022-12-18T02:13:29;49.60;;;25.45;;
13034;SDS011;6584;48.022;11.810;2022-12-18T02:18:40;53.35;;;25.50;;
13034;SDS011;6584;48.022;11.810;2022-12-18T02:21:27;57.00;;;26.02;;
13034;SDS011;6584;48.022;11.810;2022-12-18T02:26:48;50.63;;;25.85;;
13034;SDS011;6584;48.022;11.810;2022-12-18T02:29:18;49.78;;;24.70;;
13034;SDS011;6584;48.022;11.810;2022-12-18T02:31:51;49.17;;;24.52;;
13034;SDS011;6584;48.022;11.810;2022-12-18T02:34:19;50.75;;;24.50;;
13034;SDS011;6584;48.022;11.810;2022-12-18T02:36:49;50.65;;;26.08;;
13034;SDS011;6584;48.022;11.810;2022-12-18T02:39:16;51.03;;;24.73;;
13034;SDS011;6584;48.022;11.810;2022-12-18T02:41:42;50.60;;;25.92;;
13034;SDS011;6584;48.022;11.810;2022-12-18T02:44:10;59.20;;;25.05;;
13034;SDS011;6584;48.022;11.810;2022-12-18T02:49:30;57.13;;;25.42;;
13034;SDS011;6584;48.022;11.810;2022-12-18T03:01:09;46.65;;;23.65;;
13034;SDS011;6584;48.022;11.810;2022-12-18T03:03:45;52.35;;;25.08;;
13034;SDS011;6584;48.022;11.810;2022-12-18T03:06:26;46.35;;;23.52;;
13034;SDS011;6584;48.022;11.810;2022-12-18T03:09:09;45.10;;;23.10;;
13034;SDS011;6584;48.022;11.810;2022-12-18T03:12:10;51.33;;;24.13;;
13034;SDS011;6584;48.022;11.810;2022-12-18T03:14:49;47.25;;;24.15;;
13034;SDS011;6584;48.022;11.810;2022-12-18T03:17:25;47.97;;;24.48;;
13034;SDS011;6584;48.022;11.810;2022-12-18T03:19:52;48.28;;;24.60;;
13034;SDS011;6584;48.022;11.810;2022-12-18T03:22:22;41.58;;;21.38;;
13034;SDS011;6584;48.022;11.810;2022-12-18T03:24:51;49.05;;;24.83;;
13034;SDS011;6584;48.022;11.810;2022-12-18T03:27:19;44.42;;;23.52;;
13034;SDS011;6584;48.022;11.810;2022-12-18T03:29:49;47.40;;;23.92;;
13034;SDS011;6584;48.022;11.810;2022-12-18T03:32:21;47.20;;;23.52;;
13034;SDS011;6584;48.022;11.810;2022-12-18T03:34:52;46.13;;;22.63;;
13034;SDS011;6584;48.022;11.810;2022-12-18T03:37:23;44.80;;;22.65;;
13034;SDS011;6584;48.022;11.810;2022-12-18T03:39:49;44.45;;;22.70;;
13034;SDS011;6584;48.022;11.810;2022-12-18T03:42:21;50.65;;;24.30;;
13034;SDS011;6584;48.022;11.810;2022-12-18T03:44:59;47.97;;;23.08;;
13034;SDS011;6584;48.022;11.810;2022-12-18T03:47:51;44.63;;;22.77;;
13034;SDS011;6584;48.022;11.810;2022-12-18T03:50:29;44.40;;;21.80;;
13034;SDS011;6584;48.022;11.810;2022-12-18T03:56:00;43.92;;;21.35;;
13034;SDS011;6584;48.022;11.810;2022-12-18T03:58:29;42.40;;;21.50;;
13034;SDS011;6584;48.022;11.810;2022-12-18T04:00:58;38.05;;;20.17;;
13034;SDS011;6584;48.022;11.810;2022-12-18T04:03:27;41.55;;;21.38;;
13034;SDS011;6584;48.022;11.810;2022-12-18T04:05:54;42.17;;;21.77;;
13034;SDS011;6584;48.022;11.810;2022-12-18T04:08:22;47.08;;;22.60;;
13034;SDS011;6584;48.022;11.810;2022-12-18T04:10:48;45.40;;;22.92;;
13034;SDS011;6584;48.022;11.810;2022-12-18T04:13:21;44.88;;;20.88;;
13034;SDS011;6584;48.022;11.810;2022-12-18T04:15:53;42.45;;;21.88;;
13034;SDS011;6584;48.022;11.810;2022-12-18T04:18:18;42.28;;;22.42;;
13034;SDS011;6584;48.022;11.810;2022-12-18T04:20:44;44.55;;;22.48;;
13034;SDS011;6584;48.022;11.810;2022-12-18T04:23:10;39.35;;;21.30;;
13034;SDS011;6584;48.022;11.810;2022-12-18T04:25:35;41.20;;;21.95;;
13034;SDS011;6584;48.022;11.810;2022-12-18T04:28:01;38.67;;;20.77;;
13034;SDS011;6584;48.022;11.810;2022-12-18T04:30:26;40.22;;;19.55;;
13034;SDS011;6584;48.022;11.810;2022-12-18T04:32:52;39.53;;;20.77;;
13034;SDS011;6584;48.022;11.810;2022-12-18T04:35:18;40.17;;;21.52;;
13034;SDS011;6584;48.022;11.810;2022-12-18T04:37:43;41.17;;;20.63;;
13034;SDS011;6584;48.022;11.810;2022-12-18T04:40:09;39.00;;;20.55;;
13034;SDS011;6584;48.022;11.810;2022-12-18T04:42:35;36.78;;;20.45;;
13034;SDS011;6584;48.022;11.810;2022-12-18T04:45:00;42.67;;;21.80;;
13034;SDS011;6584;48.022;11.810;2022-12-18T04:47:26;38.33;;;20.90;;
13034;SDS011;6584;48.022;11.810;2022-12-18T04:49:52;46.42;;;23.88;;
13034;SDS011;6584;48.022;11.810;2022-12-18T04:52:17;47.10;;;22.58;;
13034;SDS011;6584;48.022;11.810;2022-12-18T04:54:43;42.50;;;21.60;;
13034;SDS011;6584;48.022;11.810;2022-12-18T04:57:09;41.42;;;21.17;;
13034;SDS011;6584;48.022;11.810;2022-12-18T04:59:34;41.88;;;21.20;;
13034;SDS011;6584;48.022;11.810;2022-12-18T05:02:00;44.22;;;22.50;;
13034;SDS011;6584;48.022;11.810;2022-12-18T05:04:26;43.72;;;22.27;;
13034;SDS011;6584;48.022;11.810;2022-12-18T05:06:51;40.25;;;22.05;;
13034;SDS011;6584;48.022;11.810;2022-12-18T05:09:17;44.00;;;22.17;;
13034;SDS011;6584;48.022;11.810;2022-12-18T05:11:42;39.67;;;22.17;;
13034;SDS011;6584;48.022;11.810;2022-12-18T05:14:08;40.50;;;21.40;;
13034;SDS011;6584;48.022;11.810;2022-12-18T05:16:33;43.33;;;23.60;;
13034;SDS011;6584;48.022;11.810;2022-12-18T05:18:59;39.85;;;20.67;;
13034;SDS011;6584;48.022;11.810;2022-12-18T05:21:25;43.92;;;22.95;;
13034;SDS011;6584;48.022;11.810;2022-12-18T05:23:50;41.00;;;21.25;;
13034;SDS011;6584;48.022;11.810;2022-12-18T05:26:16;42.22;;;22.67;;
13034;SDS011;6584;48.022;11.810;2022-12-18T05:28:43;41.40;;;22.95;;
13034;SDS011;6584;48.022;11.810;2022-12-18T05:31:09;41.13;;;21.42;;
13034;SDS011;6584;48.022;11.810;2022-12-18T05:33:35;43.65;;;21.90;;
13034;SDS011;6584;48.022;11.810;2022-12-18T05:36:01;44.38;;;23.08;;
13034;SDS011;6584;48.022;11.810;2022-12-18T05:38:28;43.00;;;23.00;;
13034;SDS011;6584;48.022;11.810;2022-12-18T05:40:55;45.05;;;24.33;;
13034;SDS011;6584;48.022;11.810;2022-12-18T05:43:21;42.85;;;21.98;;
13034;SDS011;6584;48.022;11.810;2022-12-18T05:45:48;37.28;;;20.05;;
13034;SDS011;6584;48.022;11.810;2022-12-18T05:48:14;42.95;;;23.55;;
13034;SDS011;6584;48.022;11.810;2022-12-18T05:50:41;47.70;;;22.45;;
13034;SDS011;6584;48.022;11.810;2022-12-18T05:53:08;42.60;;;22.95;;
13034;SDS011;6584;48.022;11.810;2022-12-18T05:55:34;44.60;;;21.08;;
13034;SDS011;6584;48.022;11.810;2022-12-18T05:58:01;42.08;;;20.98;;
13034;SDS011;6584;48.022;11.810;2022-12-18T06:00:27;42.47;;;22.42;;
13034;SDS011;6584;48.022;11.810;2022-12-18T06:02:53;43.28;;;22.95;;
13034;SDS011;6584;48.022;11.810;2022-12-18T06:05:19;44.83;;;23.30;;
13034;SDS011;6584;48.022;11.810;2022-12-18T06:07:44;43.72;;;21.98;;
13034;SDS011;6584;48.022;11.810;2022-12-18T06:10:10;80.57;;;39.25;;
13034;SDS011;6584;48.022;11.810;2022-12-18T06:12:36;74.03;;;39.10;;
13034;SDS011;6584;48.022;11.810;2022-12-18T06:15:02;74.38;;;38.20;;
13034;SDS011;6584;48.022;11.810;2022-12-18T06:17:29;64.78;;;33.17;;
13034;SDS011;6584;48.022;11.810;2022-12-18T06:19:58;65.45;;;34.40;;
13034;SDS011;6584;48.022;11.810;2022-12-18T06:22:24;52.03;;;26.88;;
13034;SDS011;6584;48.022;11.810;2022-12-18T06:24:49;56.55;;;28.48;;
13034;SDS011;6584;48.022;11.810;2022-12-18T06:27:15;49.92;;;24.17;;
13034;SDS011;6584;48.022;11.810;2022-12-18T06:29:41;71.38;;;34.22;;
13034;SDS011;6584;48.022;11.810;2022-12-18T06:32:06;65.40;;;31.55;;
13034;SDS011;6584;48.022;11.810;2022-12-18T06:34:32;58.30;;;28.63;;
13034;SDS011;6584;48.022;11.810;2022-12-18T06:36:58;53.42;;;26.55;;
13034;SDS011;6584;48.022;11.810;2022-12-18T06:39:24;70.07;;;31.27;;
13034;SDS011;6584;48.022;11.810;2022-12-18T06:41:52;61.65;;;28.35;;
13034;SDS011;6584;48.022;11.810;2022-12-18T06:44:17;48.17;;;23.00;;
13034;SDS011;6584;48.022;11.810;2022-12-18T06:46:43;70.28;;;30.98;;
13034;SDS011;6584;48.022;11.810;2022-12-18T06:49:08;61.90;;;27.73;;
13034;SDS011;6584;48.022;11.810;2022-12-18T06:51:34;55.00;;;27.42;;
13034;SDS011;6584;48.022;11.810;2022-12-18T06:54:00;59.25;;;28.60;;
13034;SDS011;6584;48.022;11.810;2022-12-18T06:56:26;60.83;;;28.10;;
13034;SDS011;6584;48.022;11.810;2022-12-18T06:58:51;65.75;;;31.23;;
13034;SDS011;6584;48.022;11.810;2022-12-18T07:01:17;62.35;;;31.55;;
13034;SDS011;6584;48.022;11.810;2022-12-18T07:03:43;56.95;;;27.58;;
13034;SDS011;6584;48.022;11.810;2022-12-18T07:06:16;44.53;;;22.85;;
13034;SDS011;6584;48.022;11.810;2022-12-18T07:08:43;52.88;;;26.33;;
13034;SDS011;6584;48.022;11.810;2022-12-18T07:11:09;48.80;;;23.25;;
13034;SDS011;6584;48.022;11.810;2022-12-18T07:13:35;57.35;;;25.42;;
13034;SDS011;6584;48.022;11.810;2022-12-18T07:16:11;50.50;;;23.67;;
13034;SDS011;6584;48.022;11.810;2022-12-18T07:18:38;41.95;;;19.25;;
13034;SDS011;6584;48.022;11.810;2022-12-18T07:21:07;53.60;;;25.52;;
13034;SDS011;6584;48.022;11.810;2022-12-18T07:23:34;65.68;;;26.83;;
13034;SDS011;6584;48.022;11.810;2022-12-18T07:26:02;67.50;;;27.70;;
13034;SDS011;6584;48.022;11.810;2022-12-18T07:28:29;118.65;;;39.58;;
13034;SDS011;6584;48.022;11.810;2022-12-18T07:30:54;61.88;;;26.70;;
13034;SDS011;6584;48.022;11.810;2022-12-18T07:33:20;60.25;;;25.60;;
13034;SDS011;6584;48.022;11.810;2022-12-18T07:35:45;51.60;;;24.75;;
13034;SDS011;6584;48.022;11.810;2022-12-18T07:38:11;38.78;;;20.73;;
13034;SDS011;6584;48.022;11.810;2022-12-18T07:40:36;40.90;;;22.38;;
13034;SDS011;6584;48.022;11.810;2022-12-18T07:43:02;38.20;;;20.38;;
13034;SDS011;6584;48.022;11.810;2022-12-18T07:45:27;40.22;;;21.02;;
13034;SDS011;6584;48.022;11.810;2022-12-18T07:47:53;45.78;;;25.35;;
13034;SDS011;6584;48.022;11.810;2022-12-18T07:50:18;40.28;;;21.13;;
13034;SDS011;6584;48.022;11.810;2022-12-18T07:52:44;47.80;;;24.80;;
13034;SDS011;6584;48.022;11.810;2022-12-18T07:55:10;42.80;;;22.00;;
13034;SDS011;6584;48.022;11.810;2022-12-18T07:57:35;30.92;;;16.92;;
13034;SDS011;6584;48.022;11.810;2022-12-18T08:00:01;42.60;;;22.77;;
13034;SDS011;6584;48.022;11.810;2022-12-18T08:02:26;40.30;;;20.50;;
13034;SDS011;6584;48.022;11.810;2022-12-18T08:04:55;42.70;;;22.08;;
13034;SDS011;6584;48.022;11.810;2022-12-18T08:07:20;37.97;;;18.45;;
13034;SDS011;6584;48.022;11.810;2022-12-18T08:09:46;34.72;;;18.25;;
13034;SDS011;6584;48.022;11.810;2022-12-18T08:12:11;67.43;;;28.98;;
13034;SDS011;6584;48.022;11.810;2022-12-18T08:14:37;64.45;;;28.85;;
13034;SDS011;6584;48.022;11.810;2022-12-18T08:17:02;38.28;;;19.35;;
13034;SDS011;6584;48.022;11.810;2022-12-18T08:19:28;78.18;;;34.50;;
13034;SDS011;6584;48.022;11.810;2022-12-18T08:21:54;75.00;;;37.22;;
13034;SDS011;6584;48.022;11.810;2022-12-18T08:24:19;41.60;;;21.25;;
13034;SDS011;6584;48.022;11.810;2022-12-18T08:26:45;32.08;;;17.92;;
13034;SDS011;6584;48.022;11.810;2022-12-18T08:29:10;34.05;;;17.90;;
13034;SDS011;6584;48.022;11.810;2022-12-18T08:31:36;38.15;;;19.02;;
13034;SDS011;6584;48.022;11.810;2022-12-18T08:34:01;29.73;;;16.38;;
13034;SDS011;6584;48.022;11.810;2022-12-18T08:36:27;30.58;;;16.90;;
13034;SDS011;6584;48.022;11.810;2022-12-18T08:38:53;31.98;;;17.50;;
13034;SDS011;6584;48.022;11.810;2022-12-18T08:41:19;33.00;;;17.27;;
13034;SDS011;6584;48.022;11.810;2022-12-18T08:43:45;35.50;;;19.58;;
13034;SDS011;6584;48.022;11.810;2022-12-18T08:46:37;29.60;;;18.08;;
13034;SDS011;6584;48.022;11.810;2022-12-18T08:49:04;29.98;;;17.00;;
13034;SDS011;6584;48.022;11.810;2022-12-18T08:51:31;40.88;;;20.88;;
13034;SDS011;6584;48.022;11.810;2022-12-18T08:53:57;31.58;;;18.25;;
13034;SDS011;6584;48.022;11.810;2022-12-18T08:56:22;31.27;;;16.58;;
13034;SDS011;6584;48.022;11.810;2022-12-18T08:58:50;24.73;;;15.52;;
13034;SDS011;6584;48.022;11.810;2022-12-18T09:01:19;26.92;;;15.88;;
13034;SDS011;6584;48.022;11.810;2022-12-18T09:03:47;27.67;;;16.75;;
13034;SDS011;6584;48.022;11.810;2022-12-18T09:06:14;26.02;;;15.18;;
13034;SDS011;6584;48.022;11.810;2022-12-18T09:08:42;31.63;;;17.00;;
13034;SDS011;6584;48.022;11.810;2022-12-18T09:11:12;25.10;;;14.45;;
13034;SDS011;6584;48.022;11.810;2022-12-18T09:13:46;32.35;;;17.52;;
13034;SDS011;6584;48.022;11.810;2022-12-18T09:16:11;38.55;;;19.88;;
13034;SDS011;6584;48.022;11.810;2022-12-18T09:18:37;29.25;;;16.00;;
13034;SDS011;6584;48.022;11.810;2022-12-18T09:21:07;33.60;;;18.55;;
13034;SDS011;6584;48.022;11.810;2022-12-18T09:23:40;33.88;;;18.05;;
13034;SDS011;6584;48.022;11.810;2022-12-18T09:26:06;36.97;;;20.10;;
13034;SDS011;6584;48.022;11.810;2022-12-18T09:28:32;31.40;;;17.80;;
13034;SDS011;6584;48.022;11.810;2022-12-18T09:30:57;29.02;;;17.88;;
13034;SDS011;6584;48.022;11.810;2022-12-18T09:33:23;29.48;;;16.27;;
13034;SDS011;6584;48.022;11.810;2022-12-18T09:35:49;29.45;;;16.48;;
13034;SDS011;6584;48.022;11.810;2022-12-18T09:38:16;29.50;;;15.77;;
13034;SDS011;6584;48.022;11.810;2022-12-18T09:40:51;29.20;;;15.30;;
13034;SDS011;6584;48.022;11.810;2022-12-18T09:43:33;29.58;;;15.35;;
13034;SDS011;6584;48.022;11.810;2022-12-18T09:46:10;27.70;;;15.18;;
13034;SDS011;6584;48.022;11.810;2022-12-18T09:48:43;29.23;;;15.98;;
13034;SDS011;6584;48.022;11.810;2022-12-18T09:51:17;29.30;;;17.38;;
13034;SDS011;6584;48.022;11.810;2022-12-18T09:53:50;27.65;;;14.73;;
13034;SDS011;6584;48.022;11.810;2022-12-18T09:56:20;31.33;;;16.25;;
13034;SDS011;6584;48.022;11.810;2022-12-18T09:58:53;26.85;;;15.93;;
13034;SDS011;6584;48.022;11.810;2022-12-18T10:01:23;24.45;;;15.35;;
13034;SDS011;6584;48.022;11.810;2022-12-18T10:03:49;26.42;;;15.07;;
13034;SDS011;6584;48.022;11.810;2022-12-18T10:06:24;27.98;;;16.13;;
13034;SDS011;6584;48.022;11.810;2022-12-18T10:20:01;29.83;;;15.23;;
13034;SDS011;6584;48.022;11.810;2022-12-18T10:25:19;26.17;;;14.38;;
13034;SDS011;6584;48.022;11.810;2022-12-18T10:27:53;24.52;;;13.60;;
13034;SDS011;6584;48.022;11.810;2022-12-18T10:30:23;28.00;;;13.98;;
13034;SDS011;6584;48.022;11.810;2022-12-18T10:32:50;28.73;;;14.48;;
13034;SDS011;6584;48.022;11.810;2022-12-18T10:38:06;27.48;;;14.32;;
13034;SDS011;6584;48.022;11.810;2022-12-18T10:40:54;29.25;;;15.85;;
13034;SDS011;6584;48.022;11.810;2022-12-18T10:51:04;26.23;;;14.48;;
13034;SDS011;6584;48.022;11.810;2022-12-18T10:53:31;25.83;;;14.95;;
13034;SDS011;6584;48.022;11.810;2022-12-18T10:56:03;27.40;;;14.77;;
13034;SDS011;6584;48.022;11.810;2022-12-18T10:58:34;25.65;;;14.35;;
13034;SDS011;6584;48.022;11.810;2022-12-18T11:03:31;22.02;;;13.05;;
13034;SDS011;6584;48.022;11.810;2022-12-18T11:08:32;27.67;;;14.95;;
13034;SDS011;6584;48.022;11.810;2022-12-18T11:10:58;22.67;;;13.38;;
13034;SDS011;6584;48.022;11.810;2022-12-18T11:13:24;24.92;;;13.93;;
13034;SDS011;6584;48.022;11.810;2022-12-18T11:15:52;26.95;;;15.00;;
13034;SDS011;6584;48.022;11.810;2022-12-18T11:18:19;25.48;;;14.63;;
13034;SDS011;6584;48.022;11.810;2022-12-18T11:20:56;26.13;;;14.43;;
13034;SDS011;6584;48.022;11.810;2022-12-18T11:23:24;28.13;;;15.23;;
13034;SDS011;6584;48.022;11.810;2022-12-18T11:25:58;30.08;;;16.00;;
13034;SDS011;6584;48.022;11.810;2022-12-18T11:30:50;26.60;;;14.35;;
13034;SDS011;6584;48.022;11.810;2022-12-18T11:36:47;28.45;;;15.50;;
13034;SDS011;6584;48.022;11.810;2022-12-18T11:39:18;24.48;;;14.43;;
13034;SDS011;6584;48.022;11.810;2022-12-18T11:41:50;27.92;;;15.77;;
13034;SDS011;6584;48.022;11.810;2022-12-18T11:47:28;25.77;;;14.23;;
13034;SDS011;6584;48.022;11.810;2022-12-18T11:50:01;25.38;;;14.82;;
13034;SDS011;6584;48.022;11.810;2022-12-18T11:52:31;28.70;;;16.75;;
13034;SDS011;6584;48.022;11.810;2022-12-18T11:55:01;25.77;;;15.02;;
13034;SDS011;6584;48.022;11.810;2022-12-18T12:00:11;26.52;;;15.52;;
13034;SDS011;6584;48.022;11.810;2022-12-18T12:08:15;25.85;;;14.88;;
13034;SDS011;6584;48.022;11.810;2022-12-18T12:22:41;33.50;;;18.92;;
13034;SDS011;6584;48.022;11.810;2022-12-18T12:28:05;26.08;;;15.57;;
13034;SDS011;6584;48.022;11.810;2022-12-18T12:30:45;29.35;;;16.75;;
13034;SDS011;6584;48.022;11.810;2022-12-18T12:33:43;29.58;;;16.08;;
13034;SDS011;6584;48.022;11.810;2022-12-18T12:38:51;27.83;;;15.55;;
13034;SDS011;6584;48.022;11.810;2022-12-18T12:41:23;37.33;;;19.70;;
13034;SDS011;6584;48.022;11.810;2022-12-18T12:44:13;32.72;;;17.27;;
13034;SDS011;6584;48.022;11.810;2022-12-18T12:46:43;29.65;;;16.95;;
13034;SDS011;6584;48.022;11.810;2022-12-18T12:49:13;27.15;;;15.27;;
13034;SDS011;6584;48.022;11.810;2022-12-18T12:51:41;25.27;;;14.88;;
13034;SDS011;6584;48.022;11.810;2022-12-18T12:54:20;28.80;;;14.95;;
13034;SDS011;6584;48.022;11.810;2022-12-18T12:56:51;28.30;;;15.18;;
13034;SDS011;6584;48.022;11.810;2022-12-18T12:59:51;27.85;;;14.63;;
13034;SDS011;6584;48.022;11.810;2022-12-18T13:04:57;27.08;;;14.90;;
13034;SDS011;6584;48.022;11.810;2022-12-18T13:20:41;27.35;;;15.40;;
13034;SDS011;6584;48.022;11.810;2022-12-18T13:36:44;27.88;;;14.45;;
13034;SDS011;6584;48.022;11.810;2022-12-18T13:41:39;29.00;;;15.02;;
13034;SDS011;6584;48.022;11.810;2022-12-18T13:44:17;29.27;;;15.35;;
13034;SDS011;6584;48.022;11.810;2022-12-18T13:46:58;30.08;;;15.50;;
13034;SDS011;6584;48.022;11.810;2022-12-18T13:49:38;27.63;;;15.50;;
13034;SDS011;6584;48.022;11.810;2022-12-18T13:52:15;26.40;;;14.70;;
13034;SDS011;6584;48.022;11.810;2022-12-18T13:54:49;27.48;;;14.52;;
13034;SDS011;6584;48.022;11.810;2022-12-18T14:02:46;25.80;;;14.00;;
13034;SDS011;6584;48.022;11.810;2022-12-18T14:05:25;27.60;;;15.07;;
13034;SDS011;6584;48.022;11.810;2022-12-18T14:08:05;27.23;;;15.50;;
13034;SDS011;6584;48.022;11.810;2022-12-18T14:10:34;24.92;;;13.88;;
13034;SDS011;6584;48.022;11.810;2022-12-18T14:13:05;25.52;;;14.57;;
13034;SDS011;6584;48.022;11.810;2022-12-18T14:15:36;26.30;;;13.80;;
13034;SDS011;6584;48.022;11.810;2022-12-18T14:18:23;25.05;;;14.07;;
13034;SDS011;6584;48.022;11.810;2022-12-18T14:21:01;50.67;;;26.60;;
13034;SDS011;6584;48.022;11.810;2022-12-18T14:25:57;32.45;;;17.20;;
13034;SDS011;6584;48.022;11.810;2022-12-18T14:28:23;37.03;;;18.65;;
13034;SDS011;6584;48.022;11.810;2022-12-18T14:30:50;32.85;;;17.33;;
13034;SDS011;6584;48.022;11.810;2022-12-18T14:33:23;33.03;;;19.50;;
13034;SDS011;6584;48.022;11.810;2022-12-18T14:35:55;31.23;;;17.58;;
13034;SDS011;6584;48.022;11.810;2022-12-18T14:38:30;32.92;;;19.85;;
13034;SDS011;6584;48.022;11.810;2022-12-18T14:40:56;31.85;;;17.65;;
13034;SDS011;6584;48.022;11.810;2022-12-18T14:43:24;34.38;;;21.58;;
13034;SDS011;6584;48.022;11.810;2022-12-18T14:45:51;32.15;;;18.85;;
13034;SDS011;6584;48.022;11.810;2022-12-18T14:48:19;33.40;;;19.00;;
13034;SDS011;6584;48.022;11.810;2022-12-18T14:50:53;30.50;;;17.90;;
13034;SDS011;6584;48.022;11.810;2022-12-18T14:53:28;29.50;;;17.70;;
13034;SDS011;6584;48.022;11.810;2022-12-18T14:56:03;32.00;;;17.33;;
13034;SDS011;6584;48.022;11.810;2022-12-18T14:58:38;31.33;;;19.65;;
13034;SDS011;6584;48.022;11.810;2022-12-18T15:01:04;31.27;;;18.88;;
13034;SDS011;6584;48.022;11.810;2022-12-18T15:03:30;32.65;;;18.77;;
13034;SDS011;6584;48.022;11.810;2022-12-18T15:05:56;30.10;;;16.52;;
13034;SDS011;6584;48.022;11.810;2022-12-18T15:08:41;33.95;;;18.30;;
13034;SDS011;6584;48.022;11.810;2022-12-18T15:16:58;32.78;;;17.05;;
13034;SDS011;6584;48.022;11.810;2022-12-18T15:19:32;37.45;;;20.02;;
13034;SDS011;6584;48.022;11.810;2022-12-18T15:21:58;32.42;;;18.58;;
13034;SDS011;6584;48.022;11.810;2022-12-18T15:24:26;33.13;;;19.05;;
13034;SDS011;6584;48.022;11.810;2022-12-18T15:26:55;35.08;;;20.33;;
13034;SDS011;6584;48.022;11.810;2022-12-18T15:29:22;34.35;;;19.27;;
13034;SDS011;6584;48.022;11.810;2022-12-18T15:34:26;40.88;;;23.98;;
13034;SDS011;6584;48.022;11.810;2022-12-18T15:36:52;34.20;;;19.60;;
13034;SDS011;6584;48.022;11.810;2022-12-18T15:39:18;37.28;;;20.83;;
13034;SDS011;6584;48.022;11.810;2022-12-18T15:41:44;36.03;;;18.60;;
13034;SDS011;6584;48.022;11.810;2022-12-18T15:44:29;35.13;;;18.48;;
13034;SDS011;6584;48.022;11.810;2022-12-18T15:46:55;35.17;;;18.65;;
13034;SDS011;6584;48.022;11.810;2022-12-18T15:49:21;33.00;;;18.77;;
13034;SDS011;6584;48.022;11.810;2022-12-18T15:51:53;33.53;;;18.60;;
13034;SDS011;6584;48.022;11.810;2022-12-18T15:54:22;32.80;;;18.38;;
13034;SDS011;6584;48.022;11.810;2022-12-18T15:57:10;35.00;;;17.33;;
13034;SDS011;6584;48.022;11.810;2022-12-18T15:59:52;32.15;;;18.70;;
13034;SDS011;6584;48.022;11.810;2022-12-18T16:02:21;31.30;;;17.35;;
13034;SDS011;6584;48.022;11.810;2022-12-18T16:04:47;31.92;;;17.55;;
13034;SDS011;6584;48.022;11.810;2022-12-18T16:07:13;32.63;;;18.02;;
13034;SDS011;6584;48.022;11.810;2022-12-18T16:09:39;30.13;;;17.88;;
13034;SDS011;6584;48.022;11.810;2022-12-18T16:12:06;30.85;;;17.58;;
13034;SDS011;6584;48.022;11.810;2022-12-18T16:14:36;30.40;;;16.85;;
13034;SDS011;6584;48.022;11.810;2022-12-18T16:17:02;29.13;;;17.05;;
13034;SDS011;6584;48.022;11.810;2022-12-18T16:19:30;31.75;;;17.70;;
13034;SDS011;6584;48.022;11.810;2022-12-18T16:21:56;26.00;;;15.38;;
13034;SDS011;6584;48.022;11.810;2022-12-18T16:24:24;33.13;;;17.50;;
13034;SDS011;6584;48.022;11.810;2022-12-18T16:26:51;27.50;;;16.92;;
13034;SDS011;6584;48.022;11.810;2022-12-18T16:29:18;29.58;;;16.50;;
13034;SDS011;6584;48.022;11.810;2022-12-18T16:31:49;27.13;;;16.08;;
13034;SDS011;6584;48.022;11.810;2022-12-18T16:34:36;33.60;;;17.52;;
13034;SDS011;6584;48.022;11.810;2022-12-18T16:37:02;32.92;;;18.05;;
13034;SDS011;6584;48.022;11.810;2022-12-18T16:39:29;36.75;;;22.98;;
13034;SDS011;6584;48.022;11.810;2022-12-18T16:41:56;38.20;;;20.13;;
13034;SDS011;6584;48.022;11.810;2022-12-18T16:44:22;34.45;;;18.63;;
13034;SDS011;6584;48.022;11.810;2022-12-18T16:46:48;28.88;;;17.05;;
13034;SDS011;6584;48.022;11.810;2022-12-18T16:49:14;31.27;;;17.80;;
13034;SDS011;6584;48.022;11.810;2022-12-18T16:51:42;34.72;;;18.55;;
13034;SDS011;6584;48.022;11.810;2022-12-18T16:54:07;39.30;;;21.00;;
13034;SDS011;6584;48.022;11.810;2022-12-18T16:56:33;38.60;;;18.67;;
13034;SDS011;6584;48.022;11.810;2022-12-18T16:58:59;33.70;;;18.92;;